Time;durP1;ratioP1;P1;durP2;ratioP2;P2;SDS_P1;SDS_P2;PMS_P1;PMS_P2;Temp;Humidity;BMP_temperature;BMP_pressure;BME280_temperature;BME280_humidity;BME280_pressure;Samples;Min_cycle;Max_cycle;Signal;HPM_P1;HPM_P2
2023/03/15 00:01:18;;;;;;;3.13;1.77;;;21.40;31.00;;;;;;5050295;28;20043;-55
2023/03/15 00:03:44;;;;;;;2.03;1.30;;;21.40;31.00;;;;;;5047762;28;20017;-59
2023/03/15 00:06:11;;;;;;;3.08;1.65;;;21.40;31.00;;;;;;5050994;28;20033;-57
2023/03/15 00:08:37;;;;;;;1.70;1.40;;;21.30;30.90;;;;;;5046630;28;20529;-59
2023/03/15 00:11:04;;;;;;;2.78;1.30;;;21.30;30.90;;;;;;5051701;28;20047;-57
2023/03/15 00:13:30;;;;;;;1.50;1.08;;;21.30;30.80;;;;;;5047516;28;20026;-58
2023/03/15 00:15:58;;;;;;;2.72;1.40;;;21.30;30.80;;;;;;5049823;28;20048;-56
2023/03/15 00:18:25;;;;;;;2.03;1.27;;;21.30;30.80;;;;;;5046527;28;20049;-58
2023/03/15 00:20:51;;;;;;;2.42;1.38;;;21.30;30.90;;;;;;5049879;28;20029;-58
2023/03/15 00:23:17;;;;;;;2.20;1.15;;;21.30;30.90;;;;;;5048853;28;20594;-56
2023/03/15 00:25:44;;;;;;;1.73;1.10;;;21.30;30.90;;;;;;5045399;28;20037;-53
2023/03/15 00:28:10;;;;;;;1.73;1.20;;;21.30;30.90;;;;;;5051930;28;20037;-58
2023/03/15 00:30:36;;;;;;;2.33;1.27;;;21.30;30.90;;;;;;5050462;28;20021;-56
2023/03/15 00:33:04;;;;;;;2.20;1.27;;;21.30;31.00;;;;;;5049287;28;20036;-56
2023/03/15 00:35:32;;;;;;;1.58;1.10;;;21.20;30.90;;;;;;5049353;28;20036;-59
2023/03/15 00:37:59;;;;;;;2.60;1.08;;;21.20;30.90;;;;;;5050562;28;20036;-58
2023/03/15 00:40:25;;;;;;;2.60;1.48;;;21.20;31.00;;;;;;5049017;28;20460;-59
2023/03/15 00:42:51;;;;;;;1.95;1.20;;;21.20;31.60;;;;;;5048853;28;20175;-55
2023/03/15 00:45:19;;;;;;;1.33;0.90;;;21.20;31.00;;;;;;5045098;28;20044;-58
2023/03/15 00:47:52;;;;;;;1.67;0.95;;;21.20;31.00;;;;;;5047932;28;20030;-56
2023/03/15 00:50:20;;;;;;;2.00;1.08;;;21.20;31.00;;;;;;5046131;28;20060;-57
2023/03/15 00:52:46;;;;;;;1.38;1.17;;;21.20;31.00;;;;;;5048379;28;20026;-54
2023/03/15 00:55:15;;;;;;;1.75;0.80;;;21.20;31.10;;;;;;5046885;28;20040;-54
2023/03/15 00:57:42;;;;;;;1.70;1.02;;;21.20;31.10;;;;;;5051195;28;20028;-56
2023/03/15 01:00:13;;;;;;;1.52;0.90;;;21.20;31.10;;;;;;5042073;28;20425;-55
2023/03/15 01:02:39;;;;;;;1.20;0.85;;;21.20;31.10;;;;;;5063920;28;20030;-57
2023/03/15 01:05:07;;;;;;;2.58;1.00;;;21.20;31.10;;;;;;5043526;28;20028;-56
2023/03/15 01:07:34;;;;;;;1.70;1.10;;;21.20;31.20;;;;;;5046970;28;20025;-57
2023/03/15 01:10:01;;;;;;;1.30;0.90;;;21.10;31.20;;;;;;5048705;28;20075;-57
2023/03/15 01:12:28;;;;;;;0.73;0.63;;;21.10;31.20;;;;;;5043990;28;20049;-57
2023/03/15 01:14:54;;;;;;;1.13;0.65;;;21.10;31.20;;;;;;5042780;28;20075;-53
2023/03/15 01:17:21;;;;;;;1.35;0.68;;;21.10;31.30;;;;;;5042327;28;20380;-56
2023/03/15 01:19:47;;;;;;;1.60;0.80;;;21.10;31.40;;;;;;5054409;28;20090;-54
2023/03/15 01:22:13;;;;;;;1.30;0.60;;;21.10;31.40;;;;;;5047674;28;20098;-58
2023/03/15 01:24:39;;;;;;;1.13;0.70;;;21.10;31.40;;;;;;5050164;28;20048;-56
2023/03/15 01:27:04;;;;;;;1.45;0.70;;;21.10;31.40;;;;;;5043063;28;20021;-57
2023/03/15 01:29:30;;;;;;;1.58;0.93;;;21.10;31.40;;;;;;5046731;28;20477;-57
2023/03/15 01:31:56;;;;;;;0.93;0.65;;;21.10;31.40;;;;;;5046965;28;20021;-55
2023/03/15 01:34:22;;;;;;;0.77;0.60;;;21.10;31.40;;;;;;5048927;28;20029;-55
2023/03/15 01:36:53;;;;;;;1.48;0.63;;;21.10;31.50;;;;;;5047636;28;20114;-52
2023/03/15 01:39:24;;;;;;;1.23;0.60;;;21.00;31.50;;;;;;5051938;28;20024;-55
2023/03/15 01:41:50;;;;;;;2.08;0.80;;;21.00;32.10;;;;;;5049033;28;20047;-54
2023/03/15 01:44:18;;;;;;;1.17;0.55;;;21.00;31.50;;;;;;5046622;28;20072;-55
2023/03/15 01:46:45;;;;;;;1.27;0.80;;;21.00;31.50;;;;;;5045626;28;20074;-56
2023/03/15 01:49:27;;;;;;;2.72;0.65;;;21.00;31.50;;;;;;5045399;28;20030;-56
2023/03/15 01:52:05;;;;;;;1.30;0.85;;;21.00;31.50;;;;;;5046400;28;20052;-55
2023/03/15 01:54:58;;;;;;;1.48;0.50;;;21.00;31.50;;;;;;5043901;28;20059;-57
2023/03/15 01:57:42;;;;;;;0.85;0.50;;;21.00;31.60;;;;;;5046495;28;20404;-52
2023/03/15 02:00:12;;;;;;;0.93;0.47;;;21.00;31.60;;;;;;5047606;28;20384;-58
2023/03/15 02:03:16;;;;;;;2.10;0.88;;;21.00;31.60;;;;;;5046161;28;20043;-57
2023/03/15 02:06:00;;;;;;;1.10;0.68;;;21.00;31.60;;;;;;5063172;28;20021;-56
2023/03/15 02:08:41;;;;;;;1.10;0.68;;;20.90;31.60;;;;;;5040747;28;20036;-55
2023/03/15 02:11:07;;;;;;;0.93;0.65;;;21.00;31.70;;;;;;5048197;28;20129;-55
2023/03/15 02:13:35;;;;;;;0.90;0.65;;;20.90;31.70;;;;;;5046748;28;20072;-56
2023/03/15 02:16:06;;;;;;;1.55;0.60;;;20.90;31.70;;;;;;5040414;28;20045;-56
2023/03/15 02:18:39;;;;;;;0.50;0.40;;;20.90;31.70;;;;;;5043922;28;20175;-55
2023/03/15 02:21:41;;;;;;;0.70;0.32;;;20.90;31.70;;;;;;5041864;28;20216;-55
2023/03/15 02:24:15;;;;;;;0.80;0.50;;;20.90;31.70;;;;;;5047387;28;20056;-54
2023/03/15 02:26:42;;;;;;;;;;;20.90;31.70;;;;;;5048597;28;20029;-52
2023/03/15 02:29:09;;;;;;;1.02;0.50;;;20.90;31.70;;;;;;5044415;28;19916;-52
2023/03/15 02:31:36;;;;;;;0.30;0.30;;;20.90;31.80;;;;;;5049761;28;20064;-53
2023/03/15 02:34:05;;;;;;;0.40;0.40;;;20.90;31.80;;;;;;5046183;28;20033;-55
2023/03/15 02:36:32;;;;;;;1.23;0.45;;;20.80;31.70;;;;;;5048178;28;20077;-55
2023/03/15 02:38:58;;;;;;;1.02;0.32;;;20.80;31.80;;;;;;5046367;28;20364;-50
2023/03/15 02:41:34;;;;;;;0.63;0.40;;;20.80;31.70;;;;;;5028479;28;20025;-52
2023/03/15 02:44:30;;;;;;;0.95;0.43;;;20.80;31.70;;;;;;5067822;28;20028;-52
2023/03/15 02:47:02;;;;;;;0.80;0.40;;;20.80;31.70;;;;;;5046708;28;20114;-55
2023/03/15 02:49:32;;;;;;;0.73;0.40;;;20.80;31.70;;;;;;5044231;28;20029;-55
2023/03/15 02:51:58;;;;;;;0.65;0.43;;;20.80;31.70;;;;;;5049257;28;20039;-55
2023/03/15 02:54:24;;;;;;;1.35;0.57;;;20.80;31.70;;;;;;5048330;28;20041;-57
2023/03/15 02:56:52;;;;;;;1.10;0.45;;;20.80;31.70;;;;;;5045438;28;20080;-56
2023/03/15 02:59:18;;;;;;;0.70;0.43;;;20.80;31.70;;;;;;5044810;28;20403;-54
2023/03/15 03:01:44;;;;;;;0.65;0.50;;;20.80;31.80;;;;;;5045128;28;20028;-58
2023/03/15 03:04:11;;;;;;;0.77;0.43;;;20.80;31.80;;;;;;5044396;28;20049;-57
2023/03/15 03:06:37;;;;;;;1.40;0.45;;;20.80;31.70;;;;;;5045602;28;20402;-52
2023/03/15 03:09:05;;;;;;;1.52;0.40;;;20.80;31.80;;;;;;5047036;28;20079;-56
2023/03/15 03:11:31;;;;;;;0.40;0.40;;;20.80;31.70;;;;;;5042570;28;20053;-55
2023/03/15 03:13:56;;;;;;;0.73;0.40;;;20.80;31.80;;;;;;5047927;28;20447;-57
2023/03/15 03:16:22;;;;;;;0.30;0.30;;;20.80;31.80;;;;;;5054428;28;20021;-54
2023/03/15 03:18:48;;;;;;;1.00;0.50;;;20.80;31.80;;;;;;5045654;28;20158;-55
2023/03/15 03:21:15;;;;;;;0.43;0.30;;;20.80;31.80;;;;;;5048273;28;20108;-56
2023/03/15 03:23:45;;;;;;;1.05;0.43;;;20.80;31.80;;;;;;5049192;28;20365;-55
2023/03/15 03:26:17;;;;;;;0.90;0.40;;;20.80;32.40;;;;;;5048861;28;20026;-54
2023/03/15 03:28:46;;;;;;;0.65;0.30;;;20.70;31.80;;;;;;5050542;28;20104;-56
2023/03/15 03:31:21;;;;;;;0.57;0.40;;;20.70;31.80;;;;;;5045756;28;20091;-54
2023/03/15 03:33:49;;;;;;;0.80;0.40;;;20.70;31.80;;;;;;5050211;28;20352;-53
2023/03/15 03:36:15;;;;;;;1.15;0.50;;;20.70;31.80;;;;;;5045608;28;20402;-55
2023/03/15 03:38:43;;;;;;;1.60;0.57;;;20.70;31.80;;;;;;5047433;28;20112;-56
2023/03/15 03:41:10;;;;;;;1.13;0.50;;;20.70;31.80;;;;;;5050017;28;20451;-57
2023/03/15 03:43:37;;;;;;;1.88;0.40;;;20.70;31.80;;;;;;5048593;28;20025;-57
2023/03/15 03:46:03;;;;;;;1.10;0.45;;;20.70;31.80;;;;;;5044547;28;20048;-54
2023/03/15 03:48:31;;;;;;;1.02;0.40;;;20.70;31.80;;;;;;5074900;28;20060;-56
2023/03/15 03:50:57;;;;;;;0.63;0.30;;;20.70;31.80;;;;;;5048970;28;20037;-55
2023/03/15 03:53:23;;;;;;;1.65;0.52;;;20.70;31.80;;;;;;5061973;28;20047;-57
2023/03/15 03:55:49;;;;;;;0.70;0.40;;;20.70;31.80;;;;;;5044791;28;20466;-56
2023/03/15 03:58:18;;;;;;;1.02;0.30;;;20.70;31.80;;;;;;5047972;28;20028;-57
2023/03/15 04:00:53;;;;;;;1.13;0.40;;;20.60;31.80;;;;;;5049230;28;20033;-56
2023/03/15 04:03:19;;;;;;;0.45;0.25;;;20.60;31.80;;;;;;5045666;28;20032;-56
2023/03/15 04:05:48;;;;;;;0.45;0.30;;;20.60;31.80;;;;;;5052571;28;20038;-57
2023/03/15 04:08:18;;;;;;;0.60;0.30;;;20.60;31.80;;;;;;5045049;28;20041;-56
2023/03/15 04:10:44;;;;;;;0.82;0.40;;;20.60;31.80;;;;;;5050795;28;20450;-55
2023/03/15 04:13:10;;;;;;;0.60;0.32;;;20.60;31.80;;;;;;5048701;28;20456;-52
2023/03/15 04:15:36;;;;;;;0.75;0.30;;;20.60;31.80;;;;;;5047929;28;20037;-54
2023/03/15 04:18:04;;;;;;;0.73;0.40;;;20.60;31.90;;;;;;5042747;28;20029;-54
2023/03/15 04:20:35;;;;;;;0.50;0.40;;;20.60;31.80;;;;;;5067172;28;20024;-56
2023/03/15 04:23:02;;;;;;;0.68;0.43;;;20.60;31.80;;;;;;5045877;28;20570;-52
2023/03/15 04:25:36;;;;;;;1.05;0.38;;;20.60;31.80;;;;;;5046768;28;20098;-55
2023/03/15 04:28:14;;;;;;;0.63;0.38;;;20.60;31.80;;;;;;5045641;28;20021;-53
2023/03/15 04:30:48;;;;;;;0.30;0.30;;;20.60;31.80;;;;;;5050542;28;20136;-55
2023/03/15 04:33:40;;;;;;;0.80;0.40;;;20.50;31.80;;;;;;5042828;28;20428;-53
2023/03/15 04:36:31;;;;;;;0.60;0.28;;;20.60;31.80;;;;;;5043144;28;20487;-57
2023/03/15 04:39:08;;;;;;;0.50;0.30;;;20.60;32.00;;;;;;5047900;28;20135;-55
2023/03/15 04:41:57;;;;;;;1.38;0.30;;;20.50;31.80;;;;;;5038427;28;20048;-54
2023/03/15 04:44:43;;;;;;;1.25;0.40;;;20.50;31.80;;;;;;5036006;28;20033;-54
2023/03/15 04:47:12;;;;;;;0.25;0.20;;;20.50;31.80;;;;;;5052577;28;20135;-57
2023/03/15 04:49:53;;;;;;;1.25;0.30;;;20.50;31.80;;;;;;5048953;28;20466;-54
2023/03/15 04:52:32;;;;;;;1.85;0.40;;;20.50;31.80;;;;;;5048394;28;20325;-56
2023/03/15 04:55:23;;;;;;;0.40;0.30;;;20.50;31.80;;;;;;5032996;28;20107;-55
2023/03/15 04:58:20;;;;;;;1.02;0.30;;;20.50;31.80;;;;;;5047884;28;20512;-53
2023/03/15 05:00:48;;;;;;;1.27;0.40;;;20.50;31.80;;;;;;5050854;28;20036;-53
2023/03/15 05:03:32;;;;;;;0.30;0.20;;;20.50;31.80;;;;;;5043578;28;20036;-55
2023/03/15 05:06:15;;;;;;;1.73;0.50;;;20.50;31.80;;;;;;5047806;28;20067;-53
2023/03/15 05:08:49;;;;;;;1.50;0.30;;;20.50;31.80;;;;;;5049748;28;20340;-51
2023/03/15 05:11:21;;;;;;;0.90;0.20;;;20.40;31.70;;;;;;5042494;28;20083;-54
2023/03/15 05:14:16;;;;;;;1.50;0.60;;;20.50;31.80;;;;;;5041997;28;20373;-50
2023/03/15 05:17:06;;;;;;;0.60;0.30;;;20.40;31.80;;;;;;5046546;28;20044;-55
2023/03/15 05:19:45;;;;;;;1.13;0.40;;;20.40;31.80;;;;;;5050254;28;20052;-53
2023/03/15 05:22:28;;;;;;;0.57;0.30;;;20.40;31.80;;;;;;5050692;28;20083;-53
2023/03/15 05:25:14;;;;;;;0.65;0.30;;;20.40;31.80;;;;;;5046281;28;20026;-52
2023/03/15 05:28:03;;;;;;;0.90;0.30;;;20.40;31.70;;;;;;5046471;28;20040;-56
2023/03/15 05:30:40;;;;;;;0.60;0.30;;;20.40;31.70;;;;;;5046602;28;20127;-56
2023/03/15 05:33:26;;;;;;;0.22;0.20;;;20.40;31.70;;;;;;5042137;28;20231;-52
2023/03/15 05:36:31;;;;;;;1.23;0.40;;;20.40;31.70;;;;;;5029564;28;20095;-54
2023/03/15 05:39:16;;;;;;;1.67;0.38;;;20.40;31.70;;;;;;5029217;28;20044;-51
2023/03/15 05:41:54;;;;;;;1.83;0.60;;;20.40;31.70;;;;;;5043492;28;20083;-55
2023/03/15 05:44:38;;;;;;;1.07;0.50;;;20.40;31.70;;;;;;5044312;28;20037;-57
2023/03/15 05:47:24;;;;;;;2.00;0.30;;;20.40;31.70;;;;;;5045110;28;20045;-54
2023/03/15 05:50:13;;;;;;;0.52;0.30;;;20.40;31.70;;;;;;5045759;28;20204;-56
2023/03/15 05:52:45;;;;;;;1.05;0.38;;;20.40;31.70;;;;;;5046367;28;20121;-56
2023/03/15 05:55:19;;;;;;;1.08;0.40;;;20.30;31.60;;;;;;5044555;28;20029;-55
2023/03/15 05:58:04;;;;;;;0.70;0.30;;;20.40;31.70;;;;;;5047036;28;20025;-56
2023/03/15 06:00:50;;;;;;;0.75;0.50;;;20.30;32.30;;;;;;5049483;28;20055;-54
2023/03/15 06:03:33;;;;;;;1.38;0.38;;;20.30;31.70;;;;;;5047032;28;20025;-54
2023/03/15 06:06:08;;;;;;;0.93;0.40;;;20.30;31.70;;;;;;5043674;28;20040;-51
2023/03/15 06:08:38;;;;;;;2.28;0.50;;;20.30;31.70;;;;;;5046004;28;20082;-56
2023/03/15 06:11:04;;;;;;;1.48;0.50;;;20.30;31.70;;;;;;5047244;28;20029;-54
2023/03/15 06:13:31;;;;;;;0.70;0.40;;;20.30;31.80;;;;;;5044224;28;20028;-52
2023/03/15 06:15:57;;;;;;;0.52;0.30;;;20.30;31.80;;;;;;5042010;28;20041;-55
2023/03/15 06:18:24;;;;;;;1.45;0.75;;;20.30;31.80;;;;;;5044360;28;20342;-53
2023/03/15 06:20:50;;;;;;;1.20;0.45;;;20.30;31.80;;;;;;5042966;28;20378;-54
2023/03/15 06:23:17;;;;;;;0.50;0.30;;;20.30;31.80;;;;;;5050133;28;20448;-56
2023/03/15 06:25:45;;;;;;;1.88;0.50;;;20.30;31.80;;;;;;5049624;28;20052;-54
2023/03/15 06:28:12;;;;;;;2.70;0.43;;;20.30;31.80;;;;;;5046652;28;20044;-56
2023/03/15 06:30:43;;;;;;;0.60;0.40;;;20.30;31.80;;;;;;5043535;28;20051;-55
2023/03/15 06:33:09;;;;;;;0.77;0.40;;;20.30;31.80;;;;;;5045223;28;20024;-53
2023/03/15 06:35:35;;;;;;;0.73;0.22;;;20.30;31.80;;;;;;5043113;28;20414;-57
2023/03/15 06:38:01;;;;;;;0.50;0.40;;;20.30;31.80;;;;;;5047948;28;20449;-55
2023/03/15 06:40:27;;;;;;;1.20;0.50;;;20.30;31.80;;;;;;5044197;28;20027;-57
2023/03/15 06:42:53;;;;;;;1.65;0.50;;;20.30;31.80;;;;;;5049058;28;20056;-56
2023/03/15 06:45:20;;;;;;;0.60;0.38;;;20.30;31.80;;;;;;5048421;28;20032;-57
2023/03/15 06:47:47;;;;;;;1.38;0.50;;;20.30;31.80;;;;;;5046472;28;20115;-55
2023/03/15 06:50:14;;;;;;;1.25;0.40;;;20.30;31.80;;;;;;5042825;28;20045;-56
2023/03/15 06:52:40;;;;;;;1.45;0.57;;;20.30;31.80;;;;;;5030825;28;20115;-55
2023/03/15 06:55:07;;;;;;;0.75;0.40;;;20.30;31.80;;;;;;5081321;28;20128;-54
2023/03/15 06:57:33;;;;;;;1.35;0.30;;;20.30;31.80;;;;;;5046070;28;20040;-56
2023/03/15 06:59:59;;;;;;;1.00;0.50;;;20.30;31.80;;;;;;5052718;28;20337;-56
2023/03/15 07:02:24;;;;;;;0.40;0.40;;;20.20;32.40;;;;;;5054421;28;20037;-57
2023/03/15 07:04:50;;;;;;;1.48;0.52;;;20.30;31.80;;;;;;5050196;28;20033;-54
2023/03/15 07:07:16;;;;;;;3.22;0.35;;;20.30;31.80;;;;;;5047593;28;20122;-56
2023/03/15 07:09:42;;;;;;;1.02;0.50;;;20.20;31.80;;;;;;5053118;28;20032;-55
2023/03/15 07:12:09;;;;;;;0.73;0.32;;;20.30;31.80;;;;;;5049822;28;20029;-56
2023/03/15 07:14:35;;;;;;;1.65;0.50;;;20.30;31.80;;;;;;5048179;28;20049;-55
2023/03/15 07:17:01;;;;;;;1.10;0.50;;;20.20;31.70;;;;;;5050305;28;20383;-55
2023/03/15 07:19:27;;;;;;;0.57;0.30;;;20.20;31.70;;;;;;5057634;28;20021;-55
2023/03/15 07:21:53;;;;;;;0.98;0.50;;;20.20;31.70;;;;;;5048884;28;20025;-55
2023/03/15 07:24:18;;;;;;;1.45;0.57;;;20.30;31.80;;;;;;5054418;28;20034;-52
2023/03/15 07:26:44;;;;;;;1.33;0.50;;;20.30;31.80;;;;;;5047609;28;20762;-55
2023/03/15 07:29:10;;;;;;;1.35;0.50;;;20.20;31.80;;;;;;5060981;28;20021;-62
2023/03/15 07:31:36;;;;;;;0.65;0.40;;;20.20;31.70;;;;;;5062404;28;20047;-57
2023/03/15 07:34:02;;;;;;;1.40;0.50;;;20.20;31.80;;;;;;5071650;28;20040;-53
2023/03/15 07:36:28;;;;;;;1.58;0.50;;;20.20;31.90;;;;;;5077940;28;20402;-55
2023/03/15 07:38:56;;;;;;;2.30;0.55;;;20.30;31.90;;;;;;5076545;28;20043;-53
2023/03/15 07:41:23;;;;;;;2.35;0.43;;;20.20;31.90;;;;;;5060829;28;20463;-54
2023/03/15 07:43:58;;;;;;;1.85;0.68;;;20.20;31.80;;;;;;5056845;28;20032;-53
2023/03/15 07:46:24;;;;;;;1.55;0.60;;;20.20;31.90;;;;;;5055273;28;20033;-55
2023/03/15 07:48:51;;;;;;;4.15;1.15;;;20.20;31.90;;;;;;5053410;28;20029;-54
2023/03/15 07:51:17;;;;;;;2.58;1.10;;;20.30;32.00;;;;;;5059515;28;20040;-57
2023/03/15 07:53:43;;;;;;;3.03;1.45;;;20.20;32.00;;;;;;5058071;28;20029;-55
2023/03/15 07:56:08;;;;;;;3.33;1.77;;;20.20;32.20;;;;;;5057222;28;20047;-53
2023/03/15 07:58:34;;;;;;;4.30;2.70;;;20.30;32.40;;;;;;5062629;28;20021;-56
2023/03/15 08:01:01;;;;;;;4.68;2.88;;;20.20;32.50;;;;;;5065116;28;20461;-57
2023/03/15 08:03:27;;;;;;;6.95;3.80;;;20.20;32.70;;;;;;5056722;28;20039;-57
2023/03/15 08:05:53;;;;;;;4.68;3.55;;;20.30;33.50;;;;;;5038289;28;20112;-58
2023/03/15 08:08:19;;;;;;;7.90;4.80;;;20.30;33.00;;;;;;5042502;28;20094;-57
2023/03/15 08:10:45;;;;;;;7.22;4.85;;;20.30;33.00;;;;;;5056473;28;20041;-57
2023/03/15 08:13:12;;;;;;;8.40;4.85;;;20.40;33.10;;;;;;5055936;28;20028;-57
2023/03/15 08:15:38;;;;;;;8.63;5.25;;;20.40;33.30;;;;;;5053687;28;20472;-56
2023/03/15 08:18:05;;;;;;;10.30;6.10;;;20.40;33.30;;;;;;5055402;28;20080;-53
2023/03/15 08:20:32;;;;;;;13.10;6.18;;;20.50;33.40;;;;;;5055377;28;20029;-50
2023/03/15 08:22:58;;;;;;;10.98;6.28;;;20.50;33.50;;;;;;5053589;28;20040;-51
2023/03/15 08:25:25;;;;;;;11.45;6.47;;;20.50;33.70;;;;;;5054823;28;21651;-55
2023/03/15 08:27:51;;;;;;;17.30;7.20;;;20.60;33.80;;;;;;5053322;28;20112;-57
2023/03/15 08:30:19;;;;;;;12.48;7.32;;;20.60;33.90;;;;;;5054837;28;20037;-56
2023/03/15 08:32:47;;;;;;;11.82;7.20;;;20.70;34.00;;;;;;5053520;28;20373;-56
2023/03/15 08:35:14;;;;;;;12.68;7.22;;;20.70;33.90;;;;;;5055808;28;20035;-57
2023/03/15 08:37:40;;;;;;;10.85;7.15;;;20.70;33.80;;;;;;5052900;28;20039;-55
2023/03/15 08:40:10;;;;;;;13.35;7.43;;;20.80;33.80;;;;;;5054655;28;20039;-58
2023/03/15 08:42:38;;;;;;;11.48;6.85;;;20.90;33.70;;;;;;5054124;28;20033;-53
2023/03/15 08:45:06;;;;;;;11.30;6.57;;;20.90;33.60;;;;;;5077188;28;20109;-55
2023/03/15 08:47:35;;;;;;;8.07;5.85;;;20.90;33.40;;;;;;5054657;28;20057;-58
2023/03/15 08:50:04;;;;;;;11.35;6.30;;;21.00;33.20;;;;;;5053247;28;20128;-58
2023/03/15 08:52:30;;;;;;;9.75;6.22;;;21.00;33.00;;;;;;5054917;28;20052;-57
2023/03/15 08:54:56;;;;;;;8.80;5.55;;;21.00;32.80;;;;;;5053923;28;20032;-59
2023/03/15 08:57:25;;;;;;;9.48;5.90;;;21.00;32.70;;;;;;5048270;28;20169;-53
2023/03/15 08:59:52;;;;;;;8.48;5.72;;;21.10;32.50;;;;;;5045145;28;20332;-61
2023/03/15 09:02:18;;;;;;;9.65;5.75;;;21.10;32.40;;;;;;5049109;28;20037;-55
2023/03/15 09:04:44;;;;;;;10.95;6.07;;;21.10;32.20;;;;;;5056105;28;20027;-54
2023/03/15 09:07:11;;;;;;;9.23;6.32;;;21.10;32.10;;;;;;5056448;28;20987;-57
2023/03/15 09:09:37;;;;;;;10.88;6.40;;;21.20;32.00;;;;;;5064435;28;20051;-58
2023/03/15 09:12:03;;;;;;;9.88;6.03;;;21.20;31.90;;;;;;5055127;28;20172;-55
2023/03/15 09:14:29;;;;;;;7.78;5.57;;;21.20;31.70;;;;;;5053391;28;20045;-56
2023/03/15 09:16:55;;;;;;;8.45;5.78;;;21.20;31.50;;;;;;5055574;28;20021;-57
2023/03/15 09:19:21;;;;;;;8.13;5.47;;;21.20;31.40;;;;;;5053283;28;20039;-53
2023/03/15 09:21:46;;;;;;;6.68;4.70;;;21.20;31.30;;;;;;5054548;28;20029;-54
2023/03/15 09:24:12;;;;;;;11.02;5.53;;;21.20;31.30;;;;;;5054856;28;20021;-57
2023/03/15 09:26:38;;;;;;;7.38;4.65;;;21.20;31.10;;;;;;5041790;28;20036;-58
2023/03/15 09:29:04;;;;;;;8.65;5.28;;;21.20;31.00;;;;;;5042198;28;20029;-55
2023/03/15 09:31:31;;;;;;;7.47;4.90;;;21.20;30.90;;;;;;5058282;28;20036;-56
2023/03/15 09:33:57;;;;;;;7.80;4.75;;;21.20;30.90;;;;;;5054757;28;20061;-57
2023/03/15 09:36:23;;;;;;;6.15;4.18;;;21.30;30.90;;;;;;5055939;28;20395;-57
2023/03/15 09:38:49;;;;;;;8.40;5.05;;;21.20;30.70;;;;;;5054295;28;20108;-55
2023/03/15 09:41:40;;;;;;;6.57;4.88;;;21.30;30.60;;;;;;5055196;28;20029;-56
2023/03/15 09:44:54;;;;;;;7.43;4.63;;;21.30;30.40;;;;;;5049064;28;20064;-56
2023/03/15 09:47:48;;;;;;;6.47;4.18;;;21.30;30.30;;;;;;5034937;28;20034;-54
2023/03/15 09:50:25;;;;;;;6.90;4.50;;;21.30;30.10;;;;;;5056090;28;20403;-56
2023/03/15 09:53:17;;;;;;;7.13;4.85;;;21.30;30.00;;;;;;5054402;28;20168;-56
2023/03/15 09:55:45;;;;;;;6.75;4.07;;;21.30;30.00;;;;;;5052323;28;20036;-58
2023/03/15 09:58:18;;;;;;;6.65;4.45;;;21.30;30.00;;;;;;5045331;28;20033;-57
2023/03/15 10:00:48;;;;;;;6.93;3.90;;;21.30;30.00;;;;;;5050776;28;20025;-56
2023/03/15 10:03:22;;;;;;;7.05;5.10;;;21.30;30.00;;;;;;5052564;28;20294;-55
2023/03/15 10:05:55;;;;;;;7.63;5.13;;;21.30;30.00;;;;;;5052549;28;20048;-58
2023/03/15 10:08:21;;;;;;;7.63;6.10;;;21.30;30.10;;;;;;5051182;28;20114;-57
2023/03/15 10:10:50;;;;;;;8.98;5.97;;;21.30;30.20;;;;;;5048625;28;20295;-60
2023/03/15 10:13:51;;;;;;;9.40;6.35;;;21.30;30.40;;;;;;5052578;28;20074;-57
2023/03/15 10:16:34;;;;;;;16.65;11.73;;;21.30;30.30;;;;;;5075096;28;20045;-55
2023/03/15 10:19:19;;;;;;;23.33;17.65;;;21.30;30.80;;;;;;5046238;28;20037;-55
2023/03/15 10:22:00;;;;;;;27.40;20.48;;;21.30;31.40;;;;;;5047618;28;20032;-59
2023/03/15 10:24:35;;;;;;;28.15;21.75;;;21.40;32.10;;;;;;5068000;28;20032;-60
2023/03/15 10:27:13;;;;;;;30.90;22.70;;;21.40;32.40;;;;;;5075192;28;20028;-59
2023/03/15 10:29:38;;;;;;;30.42;23.92;;;21.40;32.60;;;;;;5074785;28;20024;-54
2023/03/15 10:32:19;;;;;;;33.35;25.65;;;21.40;32.70;;;;;;5066087;28;20363;-56
2023/03/15 10:34:50;;;;;;;31.15;24.17;;;21.60;32.90;;;;;;5074666;28;20033;-59
2023/03/15 10:37:18;;;;;;;37.75;25.27;;;21.70;32.80;;;;;;5073902;28;20348;-56
2023/03/15 10:39:52;;;;;;;27.85;23.35;;;21.80;32.70;;;;;;5074927;28;20040;-55
2023/03/15 10:42:32;;;;;;;32.50;25.10;;;21.90;32.60;;;;;;5059559;28;20452;-56
2023/03/15 10:45:13;;;;;;;31.38;24.30;;;22.00;32.50;;;;;;5061575;28;20064;-56
2023/03/15 10:47:47;;;;;;;30.35;22.67;;;22.10;32.40;;;;;;5051661;28;20104;-57
2023/03/15 10:50:25;;;;;;;31.05;21.88;;;22.20;32.10;;;;;;5052079;28;20037;-55
2023/03/15 10:52:55;;;;;;;26.45;20.70;;;22.30;31.70;;;;;;5051572;28;20048;-57
2023/03/15 10:55:35;;;;;;;25.02;19.80;;;22.30;31.30;;;;;;5050811;28;20017;-56
2023/03/15 10:58:30;;;;;;;28.02;19.73;;;22.30;31.00;;;;;;5049621;28;20029;-58
2023/03/15 11:01:06;;;;;;;23.80;18.30;;;22.30;30.60;;;;;;5051791;28;20032;-54
2023/03/15 11:03:32;;;;;;;22.05;17.67;;;22.30;30.40;;;;;;5051224;28;20115;-56
2023/03/15 11:05:59;;;;;;;22.45;16.60;;;22.30;30.20;;;;;;5055071;28;20029;-58
2023/03/15 11:08:37;;;;;;;20.25;16.33;;;22.30;30.00;;;;;;5057867;28;20110;-57
2023/03/15 11:11:06;;;;;;;20.45;16.58;;;22.20;29.90;;;;;;5052154;28;20036;-56
2023/03/15 11:13:34;;;;;;;21.42;16.48;;;22.20;29.80;;;;;;5052983;28;20095;-58
2023/03/15 11:16:12;;;;;;;19.20;15.15;;;22.20;29.80;;;;;;5052902;28;20068;-58
2023/03/15 11:18:54;;;;;;;18.25;13.82;;;22.20;29.60;;;;;;5051509;28;20513;-55
2023/03/15 11:21:25;;;;;;;18.42;14.10;;;22.10;29.50;;;;;;5051348;28;20041;-56
2023/03/15 11:23:52;;;;;;;17.13;13.70;;;22.10;29.40;;;;;;5051672;28;20025;-56
2023/03/15 11:26:21;;;;;;;16.70;12.75;;;22.10;29.40;;;;;;5050635;28;20330;-56
2023/03/15 11:28:57;;;;;;;17.00;12.77;;;22.00;29.30;;;;;;5048175;28;20029;-56
2023/03/15 11:31:26;;;;;;;16.63;12.88;;;22.00;29.20;;;;;;5050547;28;20058;-56
2023/03/15 11:34:15;;;;;;;17.15;12.93;;;22.00;29.30;;;;;;5047229;28;20040;-55
2023/03/15 11:36:44;;;;;;;15.93;12.00;;;22.00;29.30;;;;;;5052098;28;20037;-56
2023/03/15 11:39:15;;;;;;;26.75;20.55;;;21.90;29.20;;;;;;5048114;28;20033;-57
2023/03/15 11:41:52;;;;;;;25.52;20.23;;;21.90;29.70;;;;;;5052018;28;20049;-56
2023/03/15 11:44:36;;;;;;;28.00;20.40;;;21.90;30.00;;;;;;5054950;28;20052;-56
2023/03/15 11:47:19;;;;;;;24.15;18.48;;;21.90;29.90;;;;;;5054223;28;20048;-57
2023/03/15 11:49:53;;;;;;;24.15;18.00;;;21.90;29.80;;;;;;5055748;28;20112;-59
2023/03/15 11:52:24;;;;;;;;;;;21.90;29.70;;;;;;5057149;28;20036;-56
2023/03/15 11:54:53;;;;;;;23.05;16.67;;;21.80;29.60;;;;;;5055296;28;20248;-58
2023/03/15 11:57:27;;;;;;;20.45;16.05;;;21.80;29.50;;;;;;5054594;28;20405;-58
2023/03/15 11:59:55;;;;;;;23.50;16.17;;;21.90;29.40;;;;;;5054482;28;20036;-56
2023/03/15 12:02:25;;;;;;;19.55;14.75;;;21.80;29.30;;;;;;5053983;28;20025;-58
2023/03/15 12:04:53;;;;;;;19.23;14.05;;;21.80;29.20;;;;;;5055824;28;20090;-59
2023/03/15 12:07:19;;;;;;;17.27;13.50;;;21.80;29.10;;;;;;5053502;28;20021;-58
2023/03/15 12:10:16;;;;;;;17.77;13.25;;;21.80;29.00;;;;;;5049392;28;20032;-58
2023/03/15 12:12:55;;;;;;;16.83;13.25;;;21.80;28.90;;;;;;5049614;28;20032;-59
2023/03/15 12:15:26;;;;;;;16.98;12.50;;;21.70;28.80;;;;;;5053579;28;20053;-59
2023/03/15 12:17:58;;;;;;;16.45;12.60;;;21.70;28.80;;;;;;5051353;28;20020;-58
2023/03/15 12:20:48;;;;;;;30.83;24.70;;;21.70;28.70;;;;;;5043448;28;20036;-59
2023/03/15 12:23:17;;;;;;;44.03;33.10;;;21.70;29.70;;;;;;5038042;28;20037;-61
2023/03/15 12:26:06;;;;;;;45.78;36.33;;;21.80;30.90;;;;;;5036362;28;20033;-63
2023/03/15 12:28:39;;;;;;;46.58;36.65;;;21.80;31.70;;;;;;5034754;28;20018;-58
2023/03/15 12:31:11;;;;;;;46.15;36.30;;;21.90;31.90;;;;;;5036944;28;20467;-60
2023/03/15 12:33:57;;;;;;;46.95;36.22;;;21.90;32.00;;;;;;5038296;28;20033;-57
2023/03/15 12:36:31;;;;;;;47.05;36.85;;;22.00;32.00;;;;;;5043200;28;20064;-57
2023/03/15 12:39:19;;;;;;;47.33;35.88;;;22.20;32.10;;;;;;5041990;28;20132;-61
2023/03/15 12:41:48;;;;;;;45.30;34.38;;;22.30;32.00;;;;;;5044342;28;20024;-61
2023/03/15 12:44:25;;;;;;;41.90;32.22;;;22.40;31.80;;;;;;5044262;28;20037;-63
2023/03/15 12:46:52;;;;;;;44.97;33.92;;;22.50;31.50;;;;;;5047809;28;20036;-61
2023/03/15 12:49:21;;;;;;;43.10;33.92;;;22.60;31.40;;;;;;5047628;28;20017;-62
2023/03/15 12:51:59;;;;;;;48.13;35.08;;;22.70;31.20;;;;;;5039362;28;20049;-62
2023/03/15 12:54:51;;;;;;;43.58;34.22;;;22.80;31.10;;;;;;5047019;28;20025;-63
2023/03/15 12:57:29;;;;;;;40.50;34.40;;;22.90;31.00;;;;;;5042321;28;20128;-57
2023/03/15 13:00:05;;;;;;;44.22;34.63;;;23.00;30.90;;;;;;5051749;28;20052;-62
2023/03/15 13:02:36;;;;;;;46.15;35.60;;;23.00;30.70;;;;;;5043066;28;20476;-60
2023/03/15 13:05:16;;;;;;;44.78;34.08;;;23.10;31.30;;;;;;5049459;28;20039;-61
2023/03/15 13:07:56;;;;;;;42.75;34.38;;;23.20;30.70;;;;;;5051592;28;20033;-60